Time;durP1;ratioP1;P1;durP2;ratioP2;P2;SDS_P1;SDS_P2;PMS_P1;PMS_P2;Temp;Humidity;BMP_temperature;BMP_pressure;BME280_temperature;BME280_humidity;BME280_pressure;Samples;Min_cycle;Max_cycle;Signal;HPM_P1;HPM_P2
2022/12/18 00:01:34;;;;;;;103.33;37.27;;;-3.90;99.90;;;;;;5053538;28;20124;-24
2022/12/18 00:04:01;;;;;;;146.37;45.70;;;-3.90;99.90;;;;;;5053605;28;20124;-24
2022/12/18 00:06:33;;;;;;;104.80;35.53;;;-3.80;99.90;;;;;;5054430;28;20045;-24
2022/12/18 00:09:01;;;;;;;121.10;39.33;;;-4.00;99.90;;;;;;5053521;28;20058;-24
2022/12/18 00:11:29;;;;;;;100.10;33.57;;;-4.00;99.90;;;;;;5053839;28;20044;-24
2022/12/18 00:13:57;;;;;;;129.27;39.03;;;-4.00;99.90;;;;;;5053080;28;20065;-24
2022/12/18 00:16:25;;;;;;;154.03;44.70;;;-4.10;99.90;;;;;;5035931;28;20045;-24
2022/12/18 00:18:53;;;;;;;177.13;47.20;;;-4.10;99.90;;;;;;5053090;28;20483;-24
2022/12/18 00:21:20;;;;;;;175.73;47.90;;;-4.10;99.90;;;;;;5053864;28;20042;-24
2022/12/18 00:23:47;;;;;;;100.00;34.27;;;-4.10;99.90;;;;;;5053390;28;20052;-24
2022/12/18 00:26:18;;;;;;;172.03;44.80;;;-4.20;99.90;;;;;;5053423;28;20041;-24
2022/12/18 00:28:45;;;;;;;164.63;45.73;;;-4.20;99.90;;;;;;5036126;28;20083;-24
2022/12/18 00:31:17;;;;;;;167.57;44.23;;;-4.20;99.90;;;;;;5053610;28;20528;-24
2022/12/18 00:33:43;;;;;;;168.23;44.97;;;-4.20;99.90;;;;;;5053874;28;20041;-24
2022/12/18 00:36:14;;;;;;;165.60;45.80;;;-4.20;99.90;;;;;;5054043;28;20045;-24
2022/12/18 00:38:41;;;;;;;173.50;46.60;;;-4.30;99.90;;;;;;5053899;28;20053;-24
2022/12/18 00:41:08;;;;;;;175.23;47.93;;;-4.30;99.90;;;;;;5053662;28;20037;-24
2022/12/18 00:43:34;;;;;;;163.93;45.43;;;-4.40;99.90;;;;;;5053212;28;20045;-24
2022/12/18 00:46:00;;;;;;;118.17;37.67;;;-4.40;99.90;;;;;;5053738;28;20075;-24
2022/12/18 00:48:26;;;;;;;168.50;46.77;;;-4.40;99.90;;;;;;5053095;28;20041;-24
2022/12/18 00:50:51;;;;;;;163.30;44.80;;;-4.40;99.90;;;;;;5053668;28;20045;-24
2022/12/18 00:53:17;;;;;;;169.03;44.67;;;-4.40;99.90;;;;;;5053637;28;20041;-24
2022/12/18 00:55:44;;;;;;;184.77;46.77;;;-4.40;99.90;;;;;;5053090;28;20056;-24
2022/12/18 00:58:11;;;;;;;180.03;47.10;;;-4.50;99.90;;;;;;5035247;28;20079;-24
2022/12/18 01:00:37;;;;;;;166.33;43.90;;;-4.50;99.90;;;;;;5052948;28;20076;-24
2022/12/18 01:03:05;;;;;;;161.07;42.60;;;-4.60;99.90;;;;;;5052999;28;20049;-24
2022/12/18 01:05:31;;;;;;;159.93;42.87;;;-4.60;99.90;;;;;;5020918;28;20087;-24
2022/12/18 01:07:57;;;;;;;167.40;44.63;;;-4.70;99.90;;;;;;5056809;28;20084;-24
2022/12/18 01:10:24;;;;;;;151.73;41.83;;;-4.70;99.90;;;;;;5056706;28;20391;-24
2022/12/18 01:12:50;;;;;;;157.90;41.97;;;-4.70;99.90;;;;;;5039310;28;20045;-24
2022/12/18 01:15:16;;;;;;;146.50;41.23;;;-4.70;99.90;;;;;;5056832;28;20057;-24
2022/12/18 01:17:43;;;;;;;146.50;40.60;;;-4.30;99.90;;;;;;5056646;28;20053;-24
2022/12/18 01:20:11;;;;;;;152.70;42.13;;;-4.90;99.90;;;;;;5056441;28;20044;-24
2022/12/18 01:22:36;;;;;;;151.27;42.40;;;-5.00;99.90;;;;;;5056431;28;20059;-24
2022/12/18 01:25:04;;;;;;;146.27;40.00;;;-5.00;99.90;;;;;;5057222;28;20045;-24
2022/12/18 01:27:29;;;;;;;145.17;41.37;;;-5.10;99.90;;;;;;5038672;28;20048;-25
2022/12/18 01:29:55;;;;;;;143.63;39.77;;;-5.20;99.90;;;;;;5056316;28;20129;-24
2022/12/18 01:32:22;;;;;;;142.57;42.37;;;-5.30;99.90;;;;;;5038703;28;20103;-24
2022/12/18 01:34:48;;;;;;;158.63;41.90;;;-5.30;99.90;;;;;;5038534;28;20060;-24
2022/12/18 01:37:13;;;;;;;152.47;39.70;;;-5.40;99.90;;;;;;5056167;28;20049;-24
2022/12/18 01:39:39;;;;;;;147.60;43.40;;;-5.50;99.90;;;;;;5056356;28;20128;-24
2022/12/18 01:42:13;;;;;;;159.93;38.97;;;-5.50;99.90;;;;;;5055816;28;20070;-24
2022/12/18 01:45:07;;;;;;;164.10;40.90;;;-5.50;99.90;;;;;;5038957;28;20103;-24
2022/12/18 01:47:48;;;;;;;145.43;39.95;;;-5.40;99.90;;;;;;5056097;28;20045;-24
2022/12/18 01:50:23;;;;;;;144.63;40.87;;;-5.40;99.90;;;;;;5055971;28;20458;-24
2022/12/18 01:53:03;;;;;;;142.83;39.43;;;-5.40;99.90;;;;;;5055912;28;20084;-24
2022/12/18 01:55:34;;;;;;;154.73;40.03;;;-5.60;99.90;;;;;;5038963;28;20102;-24
2022/12/18 01:58:01;;;;;;;154.57;39.57;;;-5.60;99.90;;;;;;5055865;28;20055;-24
2022/12/18 02:00:27;;;;;;;133.90;36.50;;;-5.70;99.90;;;;;;5055689;28;20037;-24
2022/12/18 02:02:54;;;;;;;146.03;39.47;;;-5.80;99.90;;;;;;5021450;28;20049;-24
2022/12/18 02:05:43;;;;;;;136.27;40.70;;;-5.80;99.90;;;;;;5021328;28;20767;-24
2022/12/18 02:08:25;;;;;;;131.77;37.53;;;-5.90;99.90;;;;;;5055720;28;20041;-24
2022/12/18 02:11:24;;;;;;;133.63;37.30;;;-5.90;99.90;;;;;;5056358;28;20045;-24
2022/12/18 02:14:45;;;;;;;151.57;39.33;;;-5.70;99.90;;;;;;4994743;28;20056;-24
2022/12/18 02:17:20;;;;;;;140.90;41.13;;;-5.60;99.90;;;;;;5029660;28;20064;-24
2022/12/18 02:20:07;;;;;;;149.97;39.33;;;-5.60;99.90;;;;;;5037797;28;20056;-24
2022/12/18 02:22:47;;;;;;;141.17;37.47;;;-5.60;99.90;;;;;;5055394;28;20052;-24
2022/12/18 02:25:40;;;;;;;127.03;37.60;;;-5.70;99.90;;;;;;5056188;28;20048;-24
2022/12/18 02:28:11;;;;;;;128.30;34.20;;;-5.90;99.90;;;;;;5055865;28;20426;-24
2022/12/18 02:30:38;;;;;;;129.40;35.50;;;-5.50;99.90;;;;;;5056061;28;20095;-24
2022/12/18 02:33:07;;;;;;;117.00;34.43;;;-6.00;99.90;;;;;;5055712;28;20040;-24
2022/12/18 02:35:35;;;;;;;113.97;33.73;;;-5.60;99.90;;;;;;5055650;28;20447;-24
2022/12/18 02:38:03;;;;;;;118.80;34.97;;;;;;;;;;5055609;28;20045;-24
2022/12/18 02:40:30;;;;;;;113.80;33.57;;;;;;;;;;5054947;28;20087;-24
2022/12/18 02:43:10;;;;;;;121.60;33.07;;;-6.80;99.90;;;;;;5037423;28;20383;-24
2022/12/18 02:45:57;;;;;;;117.93;33.87;;;-6.40;99.90;;;;;;5055543;28;20049;-24
2022/12/18 02:48:29;;;;;;;119.60;35.17;;;-6.60;99.90;;;;;;5055041;28;20052;-24
2022/12/18 02:51:15;;;;;;;121.20;35.77;;;-6.70;99.90;;;;;;5054924;28;20053;-24
2022/12/18 02:53:49;;;;;;;114.53;35.10;;;-6.60;99.90;;;;;;5054827;28;20044;-24
2022/12/18 02:56:31;;;;;;;131.40;38.03;;;-6.60;99.90;;;;;;5054782;28;20509;-24
2022/12/18 02:59:04;;;;;;;143.03;36.17;;;-6.50;99.90;;;;;;5054944;28;20555;-24
2022/12/18 03:01:38;;;;;;;152.70;40.13;;;-6.40;99.90;;;;;;5055169;28;20055;-24
2022/12/18 03:04:21;;;;;;;143.47;39.30;;;-6.40;99.90;;;;;;5055457;28;20383;-24
2022/12/18 03:06:52;;;;;;;161.00;40.15;;;-6.30;99.90;;;;;;5054868;28;20068;-24
2022/12/18 03:09:27;;;;;;;153.53;41.90;;;-6.30;99.90;;;;;;5054799;28;20483;-24
2022/12/18 03:14:49;;;;;;;142.00;40.23;;;-6.20;99.90;;;;;;5036410;28;20491;-24
2022/12/18 03:17:18;;;;;;;143.60;39.53;;;-6.30;99.90;;;;;;5054902;28;20084;-25
2022/12/18 03:19:46;;;;;;;136.30;37.07;;;-6.40;99.90;;;;;;5054166;28;20510;-24
2022/12/18 03:22:13;;;;;;;125.57;35.53;;;-6.40;99.90;;;;;;5054191;28;20098;-24
2022/12/18 03:24:39;;;;;;;131.53;37.17;;;-6.50;99.90;;;;;;5054179;28;20040;-24
2022/12/18 03:27:12;;;;;;;113.57;38.30;;;-6.60;99.90;;;;;;5054435;28;20053;-24
2022/12/18 03:29:51;;;;;;;122.57;35.10;;;-6.70;99.90;;;;;;5020894;28;20049;-24
2022/12/18 03:32:24;;;;;;;115.97;35.30;;;-6.70;99.90;;;;;;5054402;28;20049;-24
2022/12/18 03:34:52;;;;;;;128.70;36.10;;;-6.80;99.90;;;;;;5036236;28;20136;-24
2022/12/18 03:37:18;;;;;;;117.07;35.03;;;-6.80;99.90;;;;;;5053998;28;20045;-24
2022/12/18 03:39:43;;;;;;;116.93;33.43;;;-6.80;99.90;;;;;;5019894;28;20107;-24
2022/12/18 03:42:25;;;;;;;135.37;36.40;;;-6.80;99.90;;;;;;5019751;28;20053;-24
2022/12/18 03:45:13;;;;;;;119.43;35.37;;;-7.00;99.90;;;;;;5053904;28;20053;-24
2022/12/18 03:47:55;;;;;;;121.67;35.53;;;-6.90;99.90;;;;;;5053824;28;20049;-24
2022/12/18 03:50:41;;;;;;;122.03;35.00;;;-7.00;99.90;;;;;;5035999;28;20491;-24
2022/12/18 03:53:19;;;;;;;118.97;35.10;;;-7.00;99.90;;;;;;5035992;28;20060;-24
2022/12/18 03:55:46;;;;;;;136.97;37.83;;;-7.00;99.90;;;;;;5053720;28;20052;-24
2022/12/18 03:58:18;;;;;;;121.73;34.53;;;-7.00;99.90;;;;;;5003915;28;20376;-24
2022/12/18 04:00:44;;;;;;;119.67;35.37;;;-7.00;99.90;;;;;;5036519;28;20427;-24
2022/12/18 04:03:11;;;;;;;127.73;37.97;;;-7.00;99.90;;;;;;5053614;28;20060;-24
2022/12/18 04:05:39;;;;;;;126.37;37.77;;;-7.00;99.90;;;;;;5035825;28;20049;-24
2022/12/18 04:08:05;;;;;;;116.73;35.50;;;-6.40;99.90;;;;;;5053845;28;20142;-24
2022/12/18 04:10:31;;;;;;;128.73;36.27;;;-7.00;99.90;;;;;;5054068;28;20037;-24
2022/12/18 04:12:57;;;;;;;103.03;34.03;;;-7.10;99.90;;;;;;5035726;28;20049;-24
2022/12/18 04:15:23;;;;;;;118.17;36.40;;;-7.10;99.90;;;;;;5053732;28;20144;-24
2022/12/18 04:17:50;;;;;;;123.60;36.87;;;-7.10;99.90;;;;;;5053440;28;20124;-24
2022/12/18 04:20:16;;;;;;;109.10;33.87;;;-7.10;99.90;;;;;;5053865;28;20124;-24
2022/12/18 04:22:42;;;;;;;109.17;35.27;;;-8.00;99.90;;;;;;5035816;28;20033;-24
2022/12/18 04:25:12;;;;;;;115.33;37.13;;;-7.20;99.90;;;;;;5053116;28;20377;-24
2022/12/18 04:27:38;;;;;;;101.73;35.30;;;-7.20;99.90;;;;;;5053400;28;20095;-24
2022/12/18 04:30:05;;;;;;;119.37;34.07;;;-7.20;99.90;;;;;;5053388;28;20098;-24
2022/12/18 04:32:31;;;;;;;109.43;33.63;;;-7.20;99.90;;;;;;5053823;28;20092;-24
2022/12/18 04:34:56;;;;;;;103.20;33.23;;;-7.20;99.90;;;;;;5053803;28;20080;-24
2022/12/18 04:37:22;;;;;;;96.20;31.77;;;-7.30;99.90;;;;;;5053262;28;20049;-24
2022/12/18 04:39:48;;;;;;;110.77;32.47;;;-7.20;99.90;;;;;;5053753;28;20482;-24
2022/12/18 04:42:14;;;;;;;109.57;34.63;;;-7.20;99.90;;;;;;5058043;28;20041;-24
2022/12/18 04:44:40;;;;;;;111.37;34.80;;;-7.20;99.90;;;;;;5057764;28;20049;-24
2022/12/18 04:47:05;;;;;;;104.00;33.63;;;-7.20;99.90;;;;;;5057455;28;20049;-24
2022/12/18 04:49:31;;;;;;;118.60;36.60;;;-7.10;99.90;;;;;;5056835;28;20049;-24
2022/12/18 04:51:57;;;;;;;108.80;33.20;;;-7.00;99.90;;;;;;5057071;28;20094;-24
2022/12/18 04:54:22;;;;;;;102.87;32.20;;;-7.00;99.90;;;;;;5039259;28;20395;-24
2022/12/18 04:56:48;;;;;;;103.53;33.63;;;-7.00;99.90;;;;;;5040068;28;20132;-24
2022/12/18 04:59:14;;;;;;;107.37;33.27;;;-6.90;99.90;;;;;;5056647;28;20483;-24
2022/12/18 05:01:40;;;;;;;94.43;31.27;;;-7.00;99.90;;;;;;5056797;28;20048;-24
2022/12/18 05:04:06;;;;;;;105.77;32.27;;;-7.20;99.90;;;;;;5057412;28;20040;-24
2022/12/18 05:06:31;;;;;;;101.97;33.33;;;-7.10;99.90;;;;;;5057382;28;20045;-24
2022/12/18 05:08:57;;;;;;;105.60;32.90;;;-7.10;99.90;;;;;;5056751;28;20111;-24
2022/12/18 05:11:23;;;;;;;92.30;31.70;;;-7.20;99.90;;;;;;5057543;28;20047;-24
2022/12/18 05:13:49;;;;;;;110.07;33.27;;;-7.10;99.90;;;;;;5056230;28;20510;-24
2022/12/18 05:16:15;;;;;;;95.03;31.50;;;-7.20;99.90;;;;;;5038797;28;20055;-24
2022/12/18 05:18:41;;;;;;;95.47;29.63;;;-7.20;99.90;;;;;;5056590;28;20041;-24
2022/12/18 05:21:07;;;;;;;80.37;29.13;;;-7.20;99.90;;;;;;5039093;28;20041;-24
2022/12/18 05:23:33;;;;;;;96.47;30.77;;;-7.30;99.90;;;;;;5056499;28;20502;-24
2022/12/18 05:26:00;;;;;;;85.63;29.70;;;-7.40;99.90;;;;;;5056986;28;20048;-24
2022/12/18 05:28:29;;;;;;;94.90;29.93;;;-7.20;99.90;;;;;;5038635;28;20044;-24
2022/12/18 05:30:57;;;;;;;95.73;30.20;;;-7.70;99.90;;;;;;5056344;28;20179;-24
2022/12/18 05:33:24;;;;;;;87.93;29.00;;;-7.60;99.90;;;;;;5056881;28;20049;-24
2022/12/18 05:35:51;;;;;;;86.27;28.53;;;-7.60;99.90;;;;;;5038692;28;20131;-23
2022/12/18 05:38:18;;;;;;;84.30;29.17;;;-7.60;99.90;;;;;;5055934;28;20487;-24
2022/12/18 05:40:44;;;;;;;79.10;27.23;;;-7.60;99.90;;;;;;5038907;28;20046;-24
2022/12/18 05:43:10;;;;;;;90.30;29.90;;;-7.50;99.90;;;;;;5055797;28;20074;-24
2022/12/18 05:45:39;;;;;;;87.30;28.87;;;-7.50;99.90;;;;;;5056099;28;20078;-24
2022/12/18 05:48:07;;;;;;;84.17;26.90;;;-7.50;99.90;;;;;;5038303;28;20055;-23
2022/12/18 05:50:36;;;;;;;100.57;30.20;;;-7.50;99.90;;;;;;5055995;28;20052;-24
2022/12/18 05:53:03;;;;;;;84.17;27.47;;;-7.50;99.90;;;;;;5054626;28;20092;-23
2022/12/18 05:55:32;;;;;;;82.93;29.23;;;-7.50;99.90;;;;;;5055902;28;20095;-24
2022/12/18 05:57:58;;;;;;;85.70;27.93;;;-7.60;99.90;;;;;;5039334;28;20384;-24
2022/12/18 06:00:24;;;;;;;79.93;27.37;;;-7.60;99.90;;;;;;5055718;28;20056;-24
2022/12/18 06:02:50;;;;;;;79.17;24.67;;;-7.70;99.90;;;;;;5055791;28;20048;-24
2022/12/18 06:05:16;;;;;;;76.97;27.70;;;-7.90;99.90;;;;;;5056242;28;20049;-24
2022/12/18 06:07:41;;;;;;;78.57;26.90;;;-7.90;99.90;;;;;;5056176;28;20045;-24
2022/12/18 06:10:08;;;;;;;81.63;26.53;;;-8.00;99.90;;;;;;5055611;28;20044;-24
2022/12/18 06:12:33;;;;;;;84.53;29.93;;;-8.00;99.90;;;;;;5055615;28;20040;-24
2022/12/18 06:15:00;;;;;;;68.50;26.07;;;-8.10;99.90;;;;;;5055455;28;20063;-24
2022/12/18 06:17:33;;;;;;;84.07;25.63;;;-8.10;99.90;;;;;;5037768;28;20085;-24
2022/12/18 06:19:58;;;;;;;84.50;27.55;;;-8.20;99.90;;;;;;5055401;28;20060;-24
2022/12/18 06:22:25;;;;;;;84.67;26.97;;;-8.10;99.90;;;;;;5005549;28;20049;-24
2022/12/18 06:24:50;;;;;;;88.97;27.50;;;-8.10;99.90;;;;;;5055367;28;20053;-23
2022/12/18 06:27:16;;;;;;;84.60;27.17;;;-8.10;99.90;;;;;;5055316;28;20448;-24
2022/12/18 06:29:42;;;;;;;83.83;27.23;;;-8.10;99.90;;;;;;5037561;28;20045;-23
2022/12/18 06:32:08;;;;;;;76.93;24.97;;;-8.10;99.90;;;;;;5055566;28;20482;-24
2022/12/18 06:34:34;;;;;;;89.33;29.03;;;-7.90;99.90;;;;;;5037534;28;20087;-24
2022/12/18 06:37:00;;;;;;;91.90;25.90;;;-7.80;99.90;;;;;;5037375;28;20045;-24
2022/12/18 06:39:27;;;;;;;95.63;26.90;;;-7.70;99.90;;;;;;5055063;28;20047;-24
2022/12/18 06:41:53;;;;;;;84.43;26.87;;;-7.60;99.90;;;;;;5054970;28;20037;-24
2022/12/18 06:44:19;;;;;;;78.77;27.20;;;-7.60;99.90;;;;;;5038062;28;20048;-23
2022/12/18 06:46:45;;;;;;;73.57;26.00;;;-7.50;99.90;;;;;;5037635;28;20067;-24
2022/12/18 06:49:11;;;;;;;94.73;30.03;;;-7.50;99.90;;;;;;5055441;28;20111;-24
2022/12/18 06:51:37;;;;;;;71.83;26.77;;;-7.50;99.90;;;;;;5055390;28;20064;-24
2022/12/18 06:54:03;;;;;;;77.87;24.40;;;-7.40;99.90;;;;;;5054784;28;20076;-24
2022/12/18 06:56:30;;;;;;;61.80;22.30;;;-7.40;99.90;;;;;;5054750;28;20043;-23
2022/12/18 06:58:55;;;;;;;76.33;27.50;;;-7.40;99.90;;;;;;5037471;28;20041;-24
2022/12/18 07:01:22;;;;;;;85.80;26.00;;;-7.40;99.90;;;;;;5054576;28;20548;-24
2022/12/18 07:03:53;;;;;;;87.10;26.70;;;-7.40;99.90;;;;;;5036715;28;20042;-24
2022/12/18 07:06:21;;;;;;;73.63;26.00;;;-7.40;99.90;;;;;;5054639;28;20483;-24
2022/12/18 07:08:48;;;;;;;75.73;26.07;;;-7.40;99.90;;;;;;5054503;28;20087;-24
2022/12/18 07:11:14;;;;;;;67.73;25.73;;;-7.40;99.90;;;;;;5054471;28;20098;-24
2022/12/18 07:13:40;;;;;;;79.93;27.30;;;-7.40;99.90;;;;;;5054496;28;20044;-23
2022/12/18 07:16:09;;;;;;;86.57;26.97;;;-7.30;99.90;;;;;;5055632;28;20059;-24
2022/12/18 07:18:35;;;;;;;81.70;25.87;;;-7.30;99.90;;;;;;5019954;28;20080;-24
2022/12/18 07:21:06;;;;;;;74.10;25.43;;;-7.30;99.90;;;;;;5036369;28;20037;-24
2022/12/18 07:23:33;;;;;;;67.27;25.33;;;-7.30;99.90;;;;;;5036657;28;20136;-24
2022/12/18 07:26:08;;;;;;;68.67;25.03;;;-7.30;99.90;;;;;;5054745;28;20052;-24
2022/12/18 07:28:35;;;;;;;74.83;25.53;;;-7.30;99.90;;;;;;5054151;28;20049;-24
2022/12/18 07:31:12;;;;;;;67.23;25.80;;;-7.30;99.90;;;;;;5054091;28;20045;-23
2022/12/18 07:33:38;;;;;;;70.10;26.47;;;-7.30;99.90;;;;;;5054048;28;20056;-24
2022/12/18 07:36:05;;;;;;;70.17;23.97;;;-7.30;99.90;;;;;;5054681;28;20049;-23
2022/12/18 07:38:33;;;;;;;74.13;25.53;;;-7.30;99.90;;;;;;5054113;28;20049;-23
2022/12/18 07:41:10;;;;;;;62.93;25.83;;;-7.30;99.90;;;;;;5035938;28;20096;-23
2022/12/18 07:43:36;;;;;;;61.00;24.77;;;-7.30;99.90;;;;;;5053829;28;20045;-24
2022/12/18 07:46:04;;;;;;;68.10;25.27;;;-7.30;99.90;;;;;;5053403;28;20102;-24
2022/12/18 07:48:30;;;;;;;64.40;25.50;;;-7.30;99.90;;;;;;5053721;28;20049;-24
2022/12/18 07:51:00;;;;;;;70.73;25.40;;;-7.30;99.90;;;;;;5036033;28;20130;-23
2022/12/18 07:53:26;;;;;;;67.10;25.87;;;-7.30;99.90;;;;;;5035729;28;20092;-24
2022/12/18 07:55:56;;;;;;;58.03;24.10;;;-7.30;99.90;;;;;;5035592;28;20076;-24
2022/12/18 07:58:22;;;;;;;67.77;24.30;;;-7.30;99.90;;;;;;5003118;28;20136;-23
2022/12/18 08:00:48;;;;;;;65.23;25.40;;;-7.20;99.90;;;;;;5053330;28;20127;-24
2022/12/18 08:03:14;;;;;;;67.83;24.90;;;-7.20;99.90;;;;;;5053755;28;20098;-24
2022/12/18 08:05:39;;;;;;;56.57;22.63;;;-7.10;99.90;;;;;;5053469;28;20209;-24
2022/12/18 08:08:05;;;;;;;55.43;22.27;;;-7.00;99.90;;;;;;5053367;28;20402;-24
2022/12/18 08:10:31;;;;;;;60.27;23.47;;;-6.90;99.90;;;;;;5054030;28;20133;-24
2022/12/18 08:12:57;;;;;;;63.30;24.50;;;-6.80;99.90;;;;;;5035346;28;20400;-24
2022/12/18 08:15:23;;;;;;;59.63;22.47;;;-6.50;99.90;;;;;;5052621;28;20057;-24
2022/12/18 08:17:49;;;;;;;54.97;21.70;;;-6.70;99.90;;;;;;5053291;28;20132;-24
2022/12/18 08:20:18;;;;;;;65.93;22.60;;;-6.70;99.90;;;;;;5053346;28;20120;-24
2022/12/18 08:22:44;;;;;;;56.23;21.17;;;-6.70;99.90;;;;;;5054067;28;20052;-24
2022/12/18 08:25:10;;;;;;;51.00;21.17;;;-6.70;99.90;;;;;;5019159;28;20057;-24
2022/12/18 08:27:37;;;;;;;54.50;23.20;;;-6.70;99.90;;;;;;5053169;28;20049;-24
2022/12/18 08:30:04;;;;;;;63.43;23.47;;;-6.70;99.90;;;;;;5053118;28;20045;-24
2022/12/18 08:32:30;;;;;;;51.07;23.17;;;-6.60;99.90;;;;;;5053249;28;20053;-24
2022/12/18 08:34:55;;;;;;;49.47;21.50;;;-6.60;99.90;;;;;;5035246;28;20510;-24
2022/12/18 08:37:21;;;;;;;60.43;23.20;;;-6.60;99.90;;;;;;5053242;28;20052;-24
2022/12/18 08:39:47;;;;;;;58.40;23.87;;;-6.60;99.90;;;;;;5053621;28;20045;-24
2022/12/18 08:44:57;;;;;;;48.93;21.73;;;-6.50;99.90;;;;;;5053593;28;20053;-24
2022/12/18 08:47:23;;;;;;;59.63;22.70;;;-6.50;99.90;;;;;;5019095;28;20383;-24
2022/12/18 08:49:48;;;;;;;47.90;19.73;;;-6.40;99.90;;;;;;5036188;28;20040;-24
2022/12/18 08:52:14;;;;;;;50.80;21.23;;;-6.40;99.90;;;;;;5052929;28;20132;-25
2022/12/18 08:54:40;;;;;;;55.90;22.30;;;-6.30;99.90;;;;;;5018897;28;20056;-24
2022/12/18 08:57:06;;;;;;;47.10;22.63;;;-6.20;99.90;;;;;;5052955;28;20411;-24
2022/12/18 08:59:32;;;;;;;61.10;23.50;;;-6.10;99.90;;;;;;5053391;28;20084;-24
2022/12/18 09:01:58;;;;;;;47.50;21.87;;;-6.00;99.90;;;;;;5052859;28;20537;-24
2022/12/18 09:04:24;;;;;;;50.27;22.37;;;-5.90;99.90;;;;;;5053214;28;20110;-24
2022/12/18 09:06:49;;;;;;;50.13;23.23;;;-5.90;99.90;;;;;;5052718;28;20045;-24
2022/12/18 09:09:15;;;;;;;53.73;23.10;;;-5.70;99.90;;;;;;5052914;28;20076;-24
2022/12/18 09:11:41;;;;;;;47.47;21.80;;;-5.70;99.90;;;;;;5052782;28;20056;-24
2022/12/18 09:14:07;;;;;;;46.03;21.43;;;-5.60;99.90;;;;;;5052497;28;20063;-24
2022/12/18 09:16:34;;;;;;;46.37;22.23;;;-5.60;99.90;;;;;;5052829;28;20135;-24
2022/12/18 09:19:01;;;;;;;46.57;22.93;;;-5.50;99.90;;;;;;5052631;28;20057;-24
2022/12/18 09:21:32;;;;;;;55.17;25.50;;;-5.40;99.90;;;;;;5053071;28;20163;-24
2022/12/18 09:23:58;;;;;;;44.60;20.97;;;-5.40;99.90;;;;;;5035416;28;20052;-25
2022/12/18 09:26:25;;;;;;;54.23;22.67;;;-4.60;99.90;;;;;;5035523;28;20045;-25
2022/12/18 09:28:52;;;;;;;48.60;22.33;;;-5.30;99.90;;;;;;5056105;28;20045;-24
2022/12/18 09:31:20;;;;;;;47.20;21.63;;;-5.20;99.90;;;;;;5056084;28;20037;-24
2022/12/18 09:33:46;;;;;;;52.07;23.40;;;-5.20;99.90;;;;;;5056895;28;20049;-24
2022/12/18 09:36:15;;;;;;;50.23;23.00;;;-5.10;99.90;;;;;;5056803;28;20068;-24
2022/12/18 09:38:40;;;;;;;45.57;22.07;;;-5.00;99.90;;;;;;5056002;28;20131;-24
2022/12/18 09:41:45;;;;;;;48.83;22.60;;;-5.00;99.90;;;;;;5021535;28;20128;-24
2022/12/18 09:44:14;;;;;;;48.23;21.67;;;-4.80;99.90;;;;;;5018580;28;20049;-24
2022/12/18 09:46:45;;;;;;;38.00;18.57;;;-4.80;99.90;;;;;;5055992;28;20075;-24
2022/12/18 09:49:17;;;;;;;46.90;20.83;;;-4.80;99.90;;;;;;5055931;28;20049;-24
2022/12/18 09:51:49;;;;;;;42.77;20.13;;;-4.80;99.90;;;;;;5056515;28;20383;-24
2022/12/18 09:54:21;;;;;;;39.53;19.67;;;-4.70;99.90;;;;;;5038679;28;20048;-24
2022/12/18 09:56:48;;;;;;;34.35;18.67;;;-4.80;99.90;;;;;;5056687;28;20049;-24
2022/12/18 09:59:37;;;;;;;33.67;17.57;;;-4.80;99.90;;;;;;5056030;28;20044;-24
2022/12/18 10:02:21;;;;;;;41.93;19.07;;;-4.70;99.90;;;;;;5055958;28;20087;-24
2022/12/18 10:05:05;;;;;;;33.20;18.00;;;-4.80;99.90;;;;;;5056265;28;20044;-24
2022/12/18 10:07:40;;;;;;;;;;;-4.70;99.90;;;;;;5038839;28;20391;-24
2022/12/18 10:10:31;;;;;;;35.97;18.33;;;-4.70;99.90;;;;;;5055593;28;19920;-24
2022/12/18 10:13:07;;;;;;;30.83;17.13;;;-4.70;99.90;;;;;;5056348;28;20112;-24
2022/12/18 10:16:04;;;;;;;36.10;17.70;;;-4.60;99.90;;;;;;5055299;28;20084;-24
2022/12/18 10:18:54;;;;;;;36.33;18.40;;;-4.50;99.90;;;;;;5056272;28;20053;-24
2022/12/18 10:21:50;;;;;;;36.87;17.73;;;-4.40;99.90;;;;;;5037465;28;20052;-24
2022/12/18 10:25:04;;;;;;;35.83;18.67;;;-4.30;99.90;;;;;;5055361;28;20045;-24
2022/12/18 10:27:30;;;;;;;35.95;18.02;;;-4.20;99.90;;;;;;4954946;29;20051;-24
2022/12/18 10:29:57;;;;;;;32.33;16.13;;;-4.10;99.90;;;;;;5035027;28;20059;-24
2022/12/18 10:32:30;;;;;;;35.07;17.47;;;-4.10;99.90;;;;;;5055144;28;20045;-24
2022/12/18 10:34:57;;;;;;;33.95;15.88;;;-4.10;99.90;;;;;;5055205;28;20049;-24
2022/12/18 10:37:28;;;;;;;30.73;16.23;;;-4.00;99.90;;;;;;5054812;28;20045;-25
2022/12/18 10:40:26;;;;;;;27.40;15.80;;;-4.00;99.90;;;;;;5037010;28;20123;-24
2022/12/18 10:43:14;;;;;;;27.37;14.93;;;-4.00;99.90;;;;;;5000040;28;20056;-24
2022/12/18 10:45:40;;;;;;;29.40;15.30;;;-4.00;99.90;;;;;;5055035;28;20045;-24
2022/12/18 10:48:21;;;;;;;33.83;17.17;;;-3.90;99.90;;;;;;5037502;28;20080;-24
2022/12/18 10:50:50;;;;;;;26.30;13.80;;;-3.90;99.90;;;;;;5055129;28;20052;-25
2022/12/18 10:53:28;;;;;;;32.03;16.63;;;-3.80;99.90;;;;;;5055322;28;20493;-24
2022/12/18 10:55:58;;;;;;;29.73;15.07;;;-3.70;99.90;;;;;;5055260;28;20049;-24
2022/12/18 10:58:31;;;;;;;28.47;14.67;;;-3.70;99.90;;;;;;5054764;28;20076;-24
2022/12/18 11:01:08;;;;;;;25.42;14.20;;;-3.60;99.90;;;;;;5054733;28;20547;-24
2022/12/18 11:03:42;;;;;;;28.97;15.20;;;-3.60;99.90;;;;;;5037878;28;20044;-24
2022/12/18 11:06:17;;;;;;;32.90;15.17;;;-3.60;99.90;;;;;;5054645;28;20621;-24
2022/12/18 11:08:56;;;;;;;26.07;13.80;;;-3.50;99.90;;;;;;5055135;28;20088;-24
2022/12/18 11:11:23;;;;;;;24.40;12.97;;;-3.40;99.90;;;;;;5054709;28;20124;-25
2022/12/18 11:14:06;;;;;;;22.73;12.07;;;-3.40;99.90;;;;;;5054171;28;20127;-24
2022/12/18 11:16:59;;;;;;;22.75;12.75;;;-3.40;99.90;;;;;;5036912;28;20438;-24
2022/12/18 11:19:31;;;;;;;21.02;11.95;;;-3.30;99.90;;;;;;5033371;28;20060;-24
2022/12/18 11:21:57;;;;;;;20.23;11.60;;;-3.30;99.90;;;;;;5054230;28;20175;-24
2022/12/18 11:24:29;;;;;;;19.90;11.50;;;-3.20;99.90;;;;;;5036373;28;20072;-24
2022/12/18 11:26:58;;;;;;;20.27;11.33;;;-3.20;99.90;;;;;;5054155;28;20068;-25
2022/12/18 11:29:32;;;;;;;20.03;11.13;;;-3.20;99.90;;;;;;5054016;28;20059;-24
2022/12/18 11:32:35;;;;;;;20.83;10.63;;;-3.10;99.90;;;;;;5054098;28;20475;-24
2022/12/18 11:35:25;;;;;;;19.90;10.03;;;-3.10;99.90;;;;;;5054272;28;20052;-25
2022/12/18 11:37:57;;;;;;;18.17;11.20;;;-3.00;99.90;;;;;;5054020;28;20052;-24
2022/12/18 11:40:45;;;;;;;19.87;11.07;;;-3.00;99.90;;;;;;5053874;28;20080;-25
2022/12/18 11:43:43;;;;;;;22.20;11.60;;;-2.90;99.90;;;;;;5054256;28;20044;-25
2022/12/18 11:46:15;;;;;;;20.73;10.10;;;-2.90;99.90;;;;;;5034716;28;20092;-24
2022/12/18 11:48:52;;;;;;;16.87;9.63;;;-2.90;99.90;;;;;;5054695;28;20144;-24
2022/12/18 11:51:38;;;;;;;16.83;9.67;;;-2.80;99.90;;;;;;5054428;28;20044;-24
2022/12/18 11:54:15;;;;;;;15.40;9.07;;;-2.80;99.90;;;;;;5053724;28;20506;-25
2022/12/18 11:56:53;;;;;;;18.57;10.00;;;-2.80;99.90;;;;;;5053691;28;20049;-25
2022/12/18 11:59:50;;;;;;;14.80;8.67;;;-2.70;99.90;;;;;;5036992;28;20052;-24
2022/12/18 12:02:33;;;;;;;14.27;9.20;;;-2.70;99.90;;;;;;5053463;28;20053;-25
2022/12/18 12:05:02;;;;;;;16.00;8.20;;;-2.70;99.90;;;;;;5053664;28;20506;-25
2022/12/18 12:07:49;;;;;;;12.83;7.33;;;-2.70;99.90;;;;;;5053623;28;20053;-24
2022/12/18 12:10:21;;;;;;;11.33;7.00;;;-2.70;99.90;;;;;;5036408;28;20059;-25
2022/12/18 12:12:58;;;;;;;13.93;6.90;;;-2.60;99.90;;;;;;5036927;28;20426;-24
2022/12/18 12:15:46;;;;;;;10.70;6.90;;;-2.60;99.90;;;;;;5053578;28;20057;-25
2022/12/18 12:18:37;;;;;;;10.57;7.00;;;-2.60;99.90;;;;;;5036228;28;20049;-25
2022/12/18 12:21:10;;;;;;;15.07;6.90;;;-2.60;99.90;;;;;;5053364;28;20140;-25
2022/12/18 12:24:16;;;;;;;11.07;6.63;;;-2.50;99.90;;;;;;5053626;28;20045;-25
2022/12/18 12:26:48;;;;;;;11.50;6.40;;;-2.50;99.90;;;;;;5053394;28;20045;-25
2022/12/18 12:29:58;;;;;;;14.03;7.33;;;-2.40;99.90;;;;;;5053887;28;20534;-25
2022/12/18 12:32:35;;;;;;;15.00;8.20;;;-2.40;99.90;;;;;;5053310;28;20132;-25
2022/12/18 12:35:08;;;;;;;12.03;6.97;;;-2.30;99.90;;;;;;5053891;28;20045;-25
2022/12/18 12:37:52;;;;;;;11.25;7.03;;;-2.30;99.90;;;;;;5053918;28;20087;-25
2022/12/18 12:40:19;;;;;;;12.27;5.97;;;-2.20;99.90;;;;;;5053489;28;20045;-25
2022/12/18 12:45:50;;;;;;;16.17;8.30;;;-2.20;99.90;;;;;;5053187;28;20060;-25
2022/12/18 12:48:30;;;;;;;13.57;6.77;;;-2.10;99.90;;;;;;5053100;28;20056;-25
2022/12/18 12:50:58;;;;;;;9.37;6.00;;;-2.10;99.90;;;;;;5053152;28;20041;-25
2022/12/18 12:53:34;;;;;;;9.90;6.23;;;-2.10;99.90;;;;;;5053051;28;20064;-25
2022/12/18 12:56:00;;;;;;;9.20;5.53;;;-2.00;99.90;;;;;;5035518;28;20060;-25